Weather at Chris Hadfield Airport

Public forecast

Using degrees Celsius for public forecast. Weather courtesy of forecast.io.

Current aviation weather report (METAR) for Chris Hadfield Airport

Retrieved 2020/09/20 19:00 UTC (53 minutes ago):

CYZR 201900Z AUTO 15007KT 120V190 6SM HZ CLR 18/03 A3050 RMK SLP333

Aviation forecast (TAF) for Chris Hadfield Airport

Retrieved 2020/09/20 20:00 UTC (0 seconds ago):

TAF CYZR 201938Z 2020/2102 16010KT P6SM SKC BECMG 2022/2024 14008KT RMK FCST BASED ON AUTO OBS NXT FCST WILL BE ISSUED AT 210745Z